createdAt,value
2018-02-05T04:00:33.319Z,0.00
2018-02-05T04:01:33.284Z,0.00
2018-02-05T04:04:17.648Z,0.00
2018-02-05T04:05:17.607Z,0.00
2018-02-05T04:08:01.994Z,0.00
2018-02-05T04:09:01.952Z,0.00
2018-02-05T04:11:45.364Z,0.00
2018-02-05T04:12:45.301Z,0.00
2018-02-05T04:15:29.721Z,0.00
2018-02-05T04:16:29.623Z,0.00
2018-02-05T04:19:13.990Z,0.00
2018-02-05T04:20:13.950Z,0.00
2018-02-05T04:22:57.346Z,0.00
2018-02-05T04:23:57.317Z,0.00
2018-02-05T04:26:41.721Z,0.00
2018-02-05T04:27:41.642Z,0.00
2018-02-05T04:30:26.413Z,0.00
2018-02-05T04:31:26.000Z,0.00
2018-02-05T04:34:09.396Z,0.00
2018-02-05T04:35:09.726Z,0.00
2018-02-05T04:37:52.737Z,0.00
2018-02-05T04:38:53.049Z,0.00
2018-02-05T04:41:37.083Z,0.00
2018-02-05T04:42:37.414Z,0.00
2018-02-05T04:45:21.773Z,0.00
2018-02-05T04:46:21.407Z,0.00
2018-02-05T04:49:05.756Z,0.00
2018-02-05T04:49:17.998Z,0.00
2018-02-05T04:52:50.789Z,0.00
2018-02-05T04:53:50.447Z,0.00
2018-02-05T04:56:33.842Z,0.00
2018-02-05T04:57:33.822Z,0.00
2018-02-05T05:00:18.496Z,0.00
2018-02-05T05:01:18.120Z,0.00
2018-02-05T05:04:02.774Z,0.00
2018-02-05T05:05:02.463Z,0.00
2018-02-05T05:07:47.143Z,0.00
2018-02-05T05:08:47.175Z,0.00
2018-02-05T05:11:30.173Z,0.00
2018-02-05T05:12:30.141Z,0.00
2018-02-05T05:15:13.906Z,0.00
2018-02-05T05:16:13.510Z,0.00
2018-02-05T05:18:57.116Z,0.00
2018-02-05T05:19:56.844Z,0.00
2018-02-05T05:22:41.241Z,0.00
2018-02-05T05:23:41.455Z,0.00
2018-02-05T05:26:24.665Z,0.00
2018-02-05T05:27:24.539Z,0.00
2018-02-05T05:30:08.259Z,0.00
2018-02-05T05:31:07.887Z,0.00
2018-02-05T05:33:51.608Z,0.00
2018-02-05T05:34:51.272Z,0.00
2018-02-05T05:37:34.631Z,0.00
2018-02-05T05:38:34.595Z,0.00
2018-02-05T05:41:19.207Z,0.00
2018-02-05T05:42:18.926Z,0.00
2018-02-05T05:45:03.302Z,0.00
2018-02-05T05:46:03.263Z,0.00
2018-02-05T05:48:47.665Z,0.00
2018-02-05T05:49:47.945Z,0.00
2018-02-05T05:52:31.993Z,0.00
2018-02-05T05:53:31.961Z,0.00
2018-02-05T05:56:16.348Z,0.00
2018-02-05T05:57:16.346Z,0.00
2018-02-05T06:00:00.744Z,0.00
2018-02-05T06:01:00.633Z,0.00
2018-02-05T06:03:45.051Z,0.00
2018-02-05T06:04:44.981Z,0.00
2018-02-05T06:07:29.481Z,0.00
2018-02-05T06:08:29.316Z,0.00
2018-02-05T06:11:12.688Z,0.00
2018-02-05T06:12:12.655Z,0.00
2018-02-05T06:14:57.082Z,0.00
2018-02-05T06:15:57.009Z,0.00
2018-02-05T06:18:41.375Z,0.00
2018-02-05T06:19:41.351Z,0.00
2018-02-05T06:22:25.747Z,0.00
2018-02-05T06:23:25.699Z,0.00
2018-02-05T06:26:10.325Z,0.00
2018-02-05T06:27:10.037Z,0.00
2018-02-05T06:29:54.416Z,0.00
2018-02-05T06:30:54.394Z,0.00
2018-02-05T06:33:37.786Z,4.00
2018-02-05T06:34:37.715Z,4.00
2018-02-05T06:37:21.126Z,4.00
2018-02-05T06:38:21.068Z,4.00
2018-02-05T06:41:04.632Z,4.00
2018-02-05T06:42:04.599Z,4.00
2018-02-05T06:44:49.251Z,12.00
2018-02-05T06:45:48.934Z,16.00
2018-02-05T06:48:32.353Z,20.00
2018-02-05T06:49:32.286Z,20.00
2018-02-05T06:52:16.650Z,32.00
2018-02-05T06:53:19.217Z,32.00
2018-02-05T06:56:00.978Z,48.00
2018-02-05T06:57:00.933Z,56.00
2018-02-05T06:58:00.933Z,60.00
2018-02-05T06:59:00.926Z,68.00
2018-02-05T07:00:00.909Z,72.00
2018-02-05T07:01:00.894Z,80.00
2018-02-05T07:02:00.887Z,92.00
2018-02-05T07:03:00.866Z,96.00
2018-02-05T07:04:00.868Z,108.00
2018-02-05T07:05:00.843Z,116.00
2018-02-05T07:06:00.840Z,124.00
2018-02-05T07:07:00.833Z,132.00
2018-02-05T07:08:00.816Z,144.00
2018-02-05T07:09:00.803Z,152.00
2018-02-05T07:10:00.789Z,164.00
2018-02-05T07:11:00.778Z,176.00
2018-02-05T07:12:00.766Z,192.00
2018-02-05T07:13:00.751Z,204.00
2018-02-05T07:14:00.735Z,212.00
2018-02-05T07:15:00.736Z,228.00
2018-02-05T07:16:00.735Z,240.00
2018-02-05T07:17:00.711Z,256.00
2018-02-05T07:18:00.716Z,268.00
2018-02-05T07:19:00.682Z,284.00
2018-02-05T07:20:00.672Z,300.00
2018-02-05T07:21:00.658Z,312.00
2018-02-05T07:22:00.657Z,328.00
2018-02-05T07:23:00.639Z,340.00
2018-02-05T07:24:00.631Z,356.00
2018-02-05T07:25:00.639Z,372.00
2018-02-05T07:26:00.607Z,388.00
2018-02-05T07:27:00.594Z,400.00
2018-02-05T07:28:00.576Z,416.00
2018-02-05T07:29:01.537Z,432.00
2018-02-05T07:30:00.560Z,444.00
2018-02-05T07:31:00.554Z,460.00
2018-02-05T07:32:00.530Z,476.00
2018-02-05T07:33:00.517Z,492.00
2018-02-05T07:34:00.529Z,508.00
2018-02-05T07:35:00.494Z,524.00
2018-02-05T07:36:00.493Z,540.00
2018-02-05T07:37:00.476Z,556.00
2018-02-05T07:38:00.475Z,572.00
2018-02-05T07:39:00.809Z,588.00
2018-02-05T07:40:00.445Z,604.00
2018-02-05T07:41:00.431Z,620.00
2018-02-05T07:42:00.420Z,644.00
2018-02-05T07:43:00.418Z,660.00
2018-02-05T07:44:00.390Z,680.00
2018-02-05T07:45:00.384Z,696.00
2018-02-05T07:46:00.421Z,704.00
2018-02-05T07:47:00.365Z,712.00
2018-02-05T07:48:00.344Z,720.00
2018-02-05T07:49:00.336Z,736.00
2018-02-05T07:50:00.320Z,748.00
2018-02-05T07:51:00.310Z,768.00
2018-02-05T07:52:00.297Z,788.00
2018-02-05T07:53:00.281Z,804.00
2018-02-05T07:54:00.275Z,812.00
2018-02-05T07:55:00.265Z,824.00
2018-02-05T07:56:00.254Z,832.00
2018-02-05T07:57:00.241Z,844.00
2018-02-05T07:58:00.236Z,860.00
2018-02-05T07:59:00.213Z,876.00
2018-02-05T08:00:00.205Z,888.00
2018-02-05T08:01:00.191Z,908.00
2018-02-05T08:02:00.179Z,928.00
2018-02-05T08:03:00.172Z,940.00
2018-02-05T08:04:00.152Z,956.00
2018-02-05T08:05:00.138Z,972.00
2018-02-05T08:06:00.127Z,984.00
2018-02-05T08:07:00.134Z,992.00
2018-02-05T08:08:00.156Z,1000.00
2018-02-05T08:09:00.095Z,1000.00
2018-02-05T08:10:00.090Z,996.00
2018-02-05T08:11:00.074Z,1000.00
2018-02-05T08:12:00.066Z,1000.00
2018-02-05T08:13:00.065Z,1004.00
2018-02-05T08:14:00.042Z,1008.00
2018-02-05T08:15:00.036Z,1012.00
2018-02-05T08:16:00.024Z,1016.00
2018-02-05T08:17:00.034Z,1020.00
2018-02-05T08:18:00.004Z,1024.00
2018-02-05T08:18:59.985Z,1028.00
2018-02-05T08:20:00.022Z,1036.00
2018-02-05T08:20:59.974Z,1044.00
2018-02-05T08:21:59.950Z,1056.00
2018-02-05T08:22:59.944Z,1064.00
2018-02-05T08:23:59.944Z,1068.00
2018-02-05T08:24:59.927Z,1076.00
2018-02-05T08:25:59.917Z,1084.00
2018-02-05T08:26:59.893Z,1088.00
2018-02-05T08:27:59.879Z,1100.00
2018-02-05T08:28:59.865Z,1108.00
2018-02-05T08:29:59.849Z,1112.00
2018-02-05T08:30:59.840Z,1128.00
2018-02-05T08:31:59.847Z,1128.00
2018-02-05T08:32:59.824Z,1136.00
2018-02-05T08:33:59.825Z,1140.00
2018-02-05T08:34:59.798Z,1148.00
2018-02-05T08:35:59.795Z,1152.00
2018-02-05T08:36:59.784Z,1160.00
2018-02-05T08:37:59.760Z,1164.00
2018-02-05T08:38:59.769Z,1172.00
2018-02-05T08:39:59.749Z,1176.00
2018-02-05T08:40:59.732Z,1180.00
2018-02-05T08:41:59.736Z,1188.00
2018-02-05T08:42:59.731Z,1188.00
2018-02-05T08:43:59.762Z,1192.00
2018-02-05T08:44:59.703Z,1200.00
2018-02-05T08:45:59.669Z,1200.00
2018-02-05T08:46:59.659Z,1208.00
2018-02-05T08:47:59.652Z,1216.00
2018-02-05T08:48:59.638Z,1220.00
2018-02-05T08:49:59.633Z,1224.00
2018-02-05T08:50:59.614Z,1224.00
2018-02-05T08:51:59.606Z,1232.00
2018-02-05T08:52:59.590Z,1236.00
2018-02-05T08:53:59.579Z,1240.00
2018-02-05T08:54:59.580Z,1248.00
2018-02-05T08:55:59.562Z,1256.00
2018-02-05T08:56:59.553Z,1260.00
2018-02-05T08:57:59.539Z,1268.00
2018-02-05T08:58:59.529Z,1272.00
2018-02-05T08:59:59.513Z,1276.00
2018-02-05T09:00:59.491Z,1284.00
2018-02-05T09:01:59.488Z,1288.00
2018-02-05T09:02:59.471Z,1292.00
2018-02-05T09:03:59.471Z,1296.00
2018-02-05T09:04:59.470Z,1300.00
2018-02-05T09:05:59.443Z,1300.00
2018-02-05T09:06:59.477Z,1308.00
2018-02-05T09:07:59.427Z,1316.00
2018-02-05T09:08:59.414Z,1320.00
2018-02-05T09:09:59.417Z,1324.00
2018-02-05T09:10:59.396Z,1328.00
2018-02-05T09:11:59.389Z,1332.00
2018-02-05T09:12:59.370Z,1340.00
2018-02-05T09:13:59.362Z,1340.00
2018-02-05T09:14:59.346Z,1340.00
2018-02-05T09:15:59.338Z,1340.00
2018-02-05T09:16:59.325Z,1344.00
2018-02-05T09:17:59.361Z,1348.00
2018-02-05T09:18:59.307Z,1352.00
2018-02-05T09:19:59.289Z,1356.00
2018-02-05T09:20:59.275Z,1356.00
2018-02-05T09:21:59.282Z,1356.00
2018-02-05T09:22:59.243Z,1360.00
2018-02-05T09:23:59.245Z,1356.00
2018-02-05T09:24:59.240Z,1360.00
2018-02-05T09:25:59.215Z,1360.00
2018-02-05T09:26:59.220Z,1368.00
2018-02-05T09:27:59.195Z,1364.00
2018-02-05T09:28:59.192Z,1372.00
2018-02-05T09:29:59.182Z,1372.00
2018-02-05T09:30:59.161Z,1364.00
2018-02-05T09:31:59.165Z,1340.00
2018-02-05T09:32:59.146Z,1276.00
2018-02-05T09:33:59.145Z,1264.00
2018-02-05T09:34:59.122Z,1260.00
2018-02-05T09:35:59.112Z,1232.00
2018-02-05T09:36:59.114Z,1248.00
2018-02-05T09:37:59.106Z,1308.00
2018-02-05T09:38:59.076Z,1412.00
2018-02-05T09:39:59.064Z,1588.00
2018-02-05T09:40:59.057Z,1764.00
2018-02-05T09:41:59.044Z,1936.00
2018-02-05T09:42:59.042Z,2028.00
2018-02-05T09:43:59.020Z,2104.00
2018-02-05T09:44:59.004Z,2328.00
2018-02-05T09:45:59.004Z,2560.00
2018-02-05T09:46:58.982Z,2760.00
2018-02-05T09:47:58.979Z,2764.00
2018-02-05T09:48:58.967Z,2728.00
2018-02-05T09:49:58.987Z,2820.00
2018-02-05T09:50:58.937Z,3020.00
2018-02-05T09:51:58.932Z,3156.00
2018-02-05T09:52:58.929Z,3104.00
2018-02-05T09:53:58.912Z,2984.00
2018-02-05T09:54:58.907Z,2776.00
2018-02-05T09:55:58.895Z,2580.00
2018-02-05T09:56:58.872Z,2280.00
2018-02-05T09:57:58.864Z,1992.00
2018-02-05T09:58:58.853Z,1764.00
2018-02-05T09:59:58.845Z,1636.00
2018-02-05T10:00:58.852Z,1572.00
2018-02-05T10:01:58.832Z,1536.00
2018-02-05T10:02:58.812Z,1520.00
2018-02-05T10:03:58.837Z,1504.00
2018-02-05T10:04:58.804Z,1496.00
2018-02-05T10:05:58.796Z,1484.00
2018-02-05T10:06:58.786Z,1480.00
2018-02-05T10:07:58.777Z,1492.00
2018-02-05T10:08:58.753Z,1500.00
2018-02-05T10:09:58.743Z,1520.00
2018-02-05T10:10:58.726Z,1560.00
2018-02-05T10:11:58.722Z,1620.00
2018-02-05T10:12:58.718Z,1716.00
2018-02-05T10:13:58.707Z,1900.00
2018-02-05T10:14:58.700Z,1992.00
2018-02-05T10:15:58.675Z,2000.00
2018-02-05T10:16:58.694Z,2044.00
2018-02-05T10:17:58.657Z,2032.00
2018-02-05T10:18:58.665Z,2036.00
2018-02-05T10:19:58.646Z,1988.00
2018-02-05T10:20:58.657Z,1924.00
2018-02-05T10:21:58.633Z,1832.00
2018-02-05T10:22:58.634Z,1688.00
2018-02-05T10:23:58.605Z,1596.00
2018-02-05T10:24:58.589Z,1544.00
2018-02-05T10:25:58.572Z,1524.00
2018-02-05T10:26:58.572Z,1512.00
2018-02-05T10:27:58.552Z,1500.00
2018-02-05T10:28:58.556Z,1500.00
2018-02-05T10:29:58.528Z,1508.00
2018-02-05T10:30:58.520Z,1516.00
2018-02-05T10:31:58.527Z,1512.00
2018-02-05T10:32:58.512Z,1504.00
2018-02-05T10:33:58.501Z,1496.00
2018-02-05T10:34:58.480Z,1488.00
2018-02-05T10:35:58.473Z,1484.00
2018-02-05T10:36:58.466Z,1472.00
2018-02-05T10:37:10.460Z,1464.00
2018-02-05T10:38:58.440Z,1460.00
2018-02-05T10:39:58.430Z,1460.00
2018-02-05T10:40:58.420Z,1460.00
2018-02-05T10:41:58.421Z,1460.00
2018-02-05T10:42:58.450Z,1456.00
2018-02-05T10:43:58.517Z,1460.00
2018-02-05T10:44:58.501Z,1468.00
2018-02-05T10:45:58.438Z,1468.00
2018-02-05T10:46:58.380Z,1468.00
2018-02-05T10:47:58.353Z,1460.00
2018-02-05T10:48:58.346Z,1460.00
2018-02-05T10:49:58.336Z,1456.00
2018-02-05T10:50:58.375Z,1456.00
2018-02-05T10:51:58.397Z,1452.00
2018-02-05T10:52:58.316Z,1452.00
2018-02-05T10:53:58.303Z,1452.00
2018-02-05T10:54:58.372Z,1456.00
2018-02-05T10:55:58.274Z,1456.00
2018-02-05T10:56:58.264Z,1452.00
2018-02-05T10:57:58.252Z,1452.00
2018-02-05T10:58:58.236Z,1456.00
2018-02-05T10:59:58.248Z,1456.00
2018-02-05T11:00:58.228Z,1452.00
2018-02-05T11:01:58.207Z,1460.00
2018-02-05T11:02:58.212Z,1456.00
2018-02-05T11:03:58.195Z,1460.00
2018-02-05T11:04:58.200Z,1460.00
2018-02-05T11:05:58.161Z,1456.00
2018-02-05T11:06:58.168Z,1460.00
2018-02-05T11:07:58.151Z,1448.00
2018-02-05T11:08:58.173Z,1444.00
2018-02-05T11:09:58.178Z,1444.00
2018-02-05T11:10:58.121Z,1444.00
2018-02-05T11:11:58.112Z,1448.00
2018-02-05T11:12:58.104Z,1456.00
2018-02-05T11:13:58.171Z,1452.00
2018-02-05T11:14:58.388Z,1448.00
2018-02-05T11:15:58.063Z,1452.00
2018-02-05T11:16:58.057Z,1448.00
2018-02-05T11:17:58.153Z,1448.00
2018-02-05T11:18:58.040Z,1436.00
2018-02-05T11:19:58.027Z,1440.00
2018-02-05T11:20:58.018Z,1440.00
2018-02-05T11:21:58.091Z,1428.00
2018-02-05T11:22:58.000Z,1436.00
2018-02-05T11:23:58.026Z,1444.00
2018-02-05T11:24:57.981Z,1444.00
2018-02-05T11:25:57.974Z,1440.00
2018-02-05T11:26:57.968Z,1440.00
2018-02-05T11:27:57.957Z,1436.00
2018-02-05T11:28:57.948Z,1432.00
2018-02-05T11:29:57.946Z,1440.00
2018-02-05T11:30:57.911Z,1436.00
2018-02-05T11:31:57.914Z,1436.00
2018-02-05T11:32:57.933Z,1440.00
2018-02-05T11:33:57.900Z,1436.00
2018-02-05T11:34:57.879Z,1428.00
2018-02-05T11:35:57.864Z,1432.00
2018-02-05T11:36:57.864Z,1436.00
2018-02-05T11:37:57.870Z,1428.00
2018-02-05T11:38:57.833Z,1432.00
2018-02-05T11:39:57.823Z,1428.00
2018-02-05T11:40:57.816Z,1424.00
2018-02-05T11:41:57.822Z,1420.00
2018-02-05T11:42:57.797Z,1420.00
2018-02-05T11:43:57.797Z,1416.00
2018-02-05T11:44:57.785Z,1416.00
2018-02-05T11:45:57.769Z,1416.00
2018-02-05T11:46:57.751Z,1412.00
2018-02-05T11:47:57.750Z,1412.00
2018-02-05T11:48:57.748Z,1408.00
2018-02-05T11:49:57.749Z,1412.00
2018-02-05T11:50:57.737Z,1412.00
2018-02-05T11:51:57.726Z,1412.00
2018-02-05T11:52:57.724Z,1412.00
2018-02-05T11:53:57.711Z,1416.00
2018-02-05T11:54:57.684Z,1412.00
2018-02-05T11:55:57.687Z,1408.00
2018-02-05T11:56:57.661Z,1404.00
2018-02-05T11:57:57.667Z,1404.00
2018-02-05T11:58:57.640Z,1400.00
2018-02-05T11:59:57.639Z,1400.00
2018-02-05T12:00:57.625Z,1400.00
2018-02-05T12:01:57.617Z,1400.00
2018-02-05T12:02:57.600Z,1400.00
2018-02-05T12:03:57.605Z,1392.00
2018-02-05T12:04:57.589Z,1388.00
2018-02-05T12:05:57.578Z,1388.00
2018-02-05T12:06:57.563Z,1384.00
2018-02-05T12:07:57.568Z,1376.00
2018-02-05T12:08:57.564Z,1372.00
2018-02-05T12:09:57.539Z,1368.00
2018-02-05T12:10:57.530Z,1368.00
2018-02-05T12:11:57.518Z,1360.00
2018-02-05T12:12:57.500Z,1360.00
2018-02-05T12:13:57.497Z,1360.00
2018-02-05T12:14:57.491Z,1360.00
2018-02-05T12:15:57.479Z,1364.00
2018-02-05T12:16:57.462Z,1360.00
2018-02-05T12:17:57.468Z,1352.00
2018-02-05T12:18:57.442Z,1352.00
2018-02-05T12:19:57.439Z,1348.00
2018-02-05T12:20:57.428Z,1348.00
2018-02-05T12:21:57.419Z,1352.00
2018-02-05T12:22:57.417Z,1348.00
2018-02-05T12:23:57.415Z,1344.00
2018-02-05T12:24:57.399Z,1340.00
2018-02-05T12:25:57.386Z,1340.00
2018-02-05T12:26:57.382Z,1332.00
2018-02-05T12:27:57.357Z,1332.00
2018-02-05T12:28:57.360Z,1336.00
2018-02-05T12:29:57.371Z,1332.00
2018-02-05T12:30:57.344Z,1328.00
2018-02-05T12:31:57.328Z,1324.00
2018-02-05T12:32:57.314Z,1324.00
2018-02-05T12:33:57.304Z,1320.00
2018-02-05T12:34:57.294Z,1316.00
2018-02-05T12:35:57.291Z,1308.00
2018-02-05T12:36:57.280Z,1308.00
2018-02-05T12:37:57.295Z,1308.00
2018-02-05T12:38:57.256Z,1304.00
2018-02-05T12:39:57.255Z,1304.00
2018-02-05T12:40:57.241Z,1300.00
2018-02-05T12:41:57.230Z,1296.00
2018-02-05T12:42:57.228Z,1292.00
2018-02-05T12:43:57.213Z,1288.00
2018-02-05T12:44:57.207Z,1284.00
2018-02-05T12:45:57.201Z,1288.00
2018-02-05T12:46:57.198Z,1284.00
2018-02-05T12:47:57.175Z,1284.00
2018-02-05T12:48:57.156Z,1284.00
2018-02-05T12:49:57.155Z,1276.00
2018-02-05T12:50:57.167Z,1276.00
2018-02-05T12:51:57.129Z,1276.00
2018-02-05T12:52:57.128Z,1276.00
2018-02-05T12:53:57.106Z,1272.00
2018-02-05T12:54:57.119Z,1268.00
2018-02-05T12:55:57.095Z,1264.00
2018-02-05T12:56:57.088Z,1264.00
2018-02-05T12:57:57.091Z,1256.00
2018-02-05T12:58:57.063Z,1256.00
2018-02-05T12:59:57.053Z,1252.00
2018-02-05T13:00:57.057Z,1252.00
2018-02-05T13:01:57.041Z,1252.00
2018-02-05T13:02:57.044Z,1252.00
2018-02-05T13:03:57.030Z,1244.00
2018-02-05T13:04:57.019Z,1240.00
2018-02-05T13:05:57.001Z,1240.00
2018-02-05T13:06:56.987Z,1228.00
2018-02-05T13:07:56.989Z,1232.00
2018-02-05T13:08:56.976Z,1224.00
2018-02-05T13:09:56.964Z,1224.00
2018-02-05T13:10:56.957Z,1224.00
2018-02-05T13:11:56.945Z,1220.00
2018-02-05T13:12:56.946Z,1216.00
2018-02-05T13:13:56.914Z,1216.00
2018-02-05T13:14:56.920Z,1208.00
2018-02-05T13:15:56.906Z,1208.00
2018-02-05T13:16:56.895Z,1208.00
2018-02-05T13:17:56.888Z,1208.00
2018-02-05T13:18:56.882Z,1204.00
2018-02-05T13:19:56.884Z,1204.00
2018-02-05T13:20:56.869Z,1196.00
2018-02-05T13:21:56.851Z,1196.00
2018-02-05T13:22:56.836Z,1196.00
2018-02-05T13:23:56.823Z,1196.00
2018-02-05T13:24:56.820Z,1192.00
2018-02-05T13:25:56.868Z,1192.00
2018-02-05T13:26:56.811Z,1192.00
2018-02-05T13:27:56.793Z,1192.00
2018-02-05T13:28:56.775Z,1188.00
2018-02-05T13:29:56.771Z,1184.00
2018-02-05T13:30:56.772Z,1184.00
2018-02-05T13:31:56.760Z,1188.00
2018-02-05T13:32:56.745Z,1188.00
2018-02-05T13:33:56.738Z,1188.00
2018-02-05T13:34:56.749Z,1188.00
2018-02-05T13:35:56.716Z,1188.00
2018-02-05T13:36:56.713Z,1188.00
2018-02-05T13:37:56.697Z,1188.00
2018-02-05T13:38:56.679Z,1184.00
2018-02-05T13:39:56.686Z,1192.00
2018-02-05T13:40:56.684Z,1184.00
2018-02-05T13:41:56.662Z,1188.00
2018-02-05T13:42:56.661Z,1180.00
2018-02-05T13:43:56.654Z,1172.00
2018-02-05T13:44:56.629Z,1172.00
2018-02-05T13:45:56.622Z,1172.00
2018-02-05T13:46:56.620Z,1172.00
2018-02-05T13:47:56.610Z,1176.00
2018-02-05T13:48:56.594Z,1180.00
2018-02-05T13:49:56.588Z,1172.00
2018-02-05T13:50:56.572Z,1164.00
2018-02-05T13:51:56.563Z,1160.00
2018-02-05T13:52:56.547Z,1160.00
2018-02-05T13:53:56.552Z,1156.00
2018-02-05T13:54:56.527Z,1152.00
2018-02-05T13:55:56.533Z,1152.00
2018-02-05T13:56:56.511Z,1152.00
2018-02-05T13:57:56.515Z,1144.00
2018-02-05T13:58:56.508Z,1140.00
2018-02-05T13:59:56.502Z,1136.00
2018-02-05T14:00:56.480Z,1136.00
2018-02-05T14:01:56.464Z,1136.00
2018-02-05T14:02:56.482Z,1128.00
2018-02-05T14:03:56.466Z,1124.00
2018-02-05T14:04:56.441Z,1124.00
2018-02-05T14:05:56.430Z,1124.00
2018-02-05T14:06:56.419Z,1120.00
2018-02-05T14:07:56.412Z,1120.00
2018-02-05T14:08:56.394Z,1116.00
2018-02-05T14:09:56.400Z,1116.00
2018-02-05T14:10:56.383Z,1112.00
2018-02-05T14:11:56.373Z,1116.00
2018-02-05T14:12:56.366Z,1108.00
2018-02-05T14:13:56.352Z,1108.00
2018-02-05T14:14:56.351Z,1104.00
2018-02-05T14:15:56.347Z,1100.00
2018-02-05T14:16:56.323Z,1100.00
2018-02-05T14:17:56.324Z,1092.00
2018-02-05T14:18:56.312Z,1088.00
2018-02-05T14:19:56.301Z,1080.00
2018-02-05T14:20:56.288Z,1076.00
2018-02-05T14:21:56.272Z,1068.00
2018-02-05T14:22:56.268Z,1064.00
2018-02-05T14:23:56.258Z,1064.00
2018-02-05T14:24:56.241Z,1068.00
2018-02-05T14:25:56.239Z,1064.00
2018-02-05T14:26:56.232Z,1060.00
2018-02-05T14:27:56.237Z,1056.00
2018-02-05T14:28:56.208Z,1052.00
2018-02-05T14:29:56.203Z,1048.00
2018-02-05T14:30:56.290Z,1048.00
2018-02-05T14:31:56.191Z,1048.00
2018-02-05T14:32:56.173Z,1044.00
2018-02-05T14:33:56.166Z,1044.00
2018-02-05T14:34:56.192Z,1036.00
2018-02-05T14:35:56.166Z,1036.00
2018-02-05T14:36:56.206Z,1032.00
2018-02-05T14:37:56.221Z,1028.00
2018-02-05T14:38:56.153Z,1024.00
2018-02-05T14:39:56.122Z,1016.00
2018-02-05T14:40:56.093Z,1012.00
2018-02-05T14:41:56.108Z,1008.00
2018-02-05T14:42:56.082Z,1004.00
2018-02-05T14:43:56.085Z,1000.00
2018-02-05T14:44:56.062Z,992.00
2018-02-05T14:45:56.050Z,992.00
2018-02-05T14:46:56.041Z,988.00
2018-02-05T14:47:56.027Z,980.00
2018-02-05T14:48:56.030Z,980.00
2018-02-05T14:49:56.014Z,972.00
2018-02-05T14:50:56.004Z,972.00
2018-02-05T14:51:55.997Z,964.00
2018-02-05T14:52:55.996Z,960.00
2018-02-05T14:53:55.973Z,952.00
2018-02-05T14:54:55.964Z,948.00
2018-02-05T14:55:55.956Z,944.00
2018-02-05T14:56:55.945Z,940.00
2018-02-05T14:57:55.926Z,936.00
2018-02-05T14:58:55.929Z,928.00
2018-02-05T14:59:56.081Z,920.00
2018-02-05T15:00:55.906Z,916.00
2018-02-05T15:01:55.898Z,908.00
2018-02-05T15:02:55.899Z,900.00
2018-02-05T15:03:55.872Z,896.00
2018-02-05T15:04:55.859Z,888.00
2018-02-05T15:05:55.861Z,884.00
2018-02-05T15:06:55.846Z,880.00
2018-02-05T15:07:55.840Z,876.00
2018-02-05T15:08:55.839Z,876.00
2018-02-05T15:09:56.406Z,868.00
2018-02-05T15:10:55.813Z,868.00
2018-02-05T15:11:55.800Z,860.00
2018-02-05T15:12:55.791Z,856.00
2018-02-05T15:13:55.805Z,848.00
2018-02-05T15:14:55.772Z,840.00
2018-02-05T15:15:55.762Z,832.00
2018-02-05T15:16:55.749Z,824.00
2018-02-05T15:17:55.735Z,816.00
2018-02-05T15:18:55.744Z,808.00
2018-02-05T15:19:55.728Z,804.00
2018-02-05T15:20:57.957Z,800.00
2018-02-05T15:21:55.707Z,788.00
2018-02-05T15:22:55.691Z,780.00
2018-02-05T15:23:55.688Z,772.00
2018-02-05T15:24:55.682Z,764.00
2018-02-05T15:25:55.684Z,756.00
2018-02-05T15:26:55.648Z,748.00
2018-02-05T15:27:55.650Z,740.00
2018-02-05T15:28:55.640Z,736.00
2018-02-05T15:29:55.672Z,728.00
2018-02-05T15:30:55.784Z,720.00
2018-02-05T15:31:55.731Z,712.00
2018-02-05T15:32:55.595Z,708.00
2018-02-05T15:33:55.635Z,696.00
2018-02-05T15:34:55.585Z,692.00
2018-02-05T15:35:55.556Z,680.00
2018-02-05T15:36:55.546Z,672.00
2018-02-05T15:37:55.550Z,664.00
2018-02-05T15:38:55.532Z,656.00
2018-02-05T15:39:55.519Z,644.00
2018-02-05T15:40:55.519Z,636.00
2018-02-05T15:41:55.500Z,624.00
2018-02-05T15:42:55.596Z,616.00
2018-02-05T15:43:55.529Z,604.00
2018-02-05T15:44:55.590Z,596.00
2018-02-05T15:45:55.463Z,584.00
2018-02-05T15:46:55.451Z,572.00
2018-02-05T15:47:55.436Z,564.00
2018-02-05T15:48:55.427Z,552.00
2018-02-05T15:49:55.432Z,540.00
2018-02-05T15:50:55.415Z,532.00
2018-02-05T15:51:55.412Z,520.00
2018-02-05T15:52:55.395Z,508.00
2018-02-05T15:53:55.387Z,500.00
2018-02-05T15:54:55.378Z,488.00
2018-02-05T15:55:55.360Z,476.00
2018-02-05T15:56:55.352Z,464.00
2018-02-05T15:57:55.347Z,452.00
2018-02-05T15:58:55.327Z,440.00
2018-02-05T15:59:55.321Z,428.00
2018-02-05T16:00:55.362Z,416.00
2018-02-05T16:01:55.308Z,404.00
2018-02-05T16:02:55.414Z,388.00
2018-02-05T16:03:55.292Z,380.00
2018-02-05T16:04:55.276Z,364.00
2018-02-05T16:05:55.274Z,352.00
2018-02-05T16:06:55.256Z,340.00
2018-02-05T16:07:55.236Z,328.00
2018-02-05T16:08:55.252Z,316.00
2018-02-05T16:09:55.229Z,304.00
2018-02-05T16:10:55.208Z,292.00
2018-02-05T16:11:55.194Z,280.00
2018-02-05T16:12:55.186Z,264.00
2018-02-05T16:13:55.181Z,256.00
2018-02-05T16:14:55.169Z,244.00
2018-02-05T16:15:55.159Z,232.00
2018-02-05T16:16:55.146Z,220.00
2018-02-05T16:17:55.138Z,208.00
2018-02-05T16:18:55.128Z,196.00
2018-02-05T16:19:55.138Z,188.00
2018-02-05T16:20:55.105Z,176.00
2018-02-05T16:21:55.100Z,164.00
2018-02-05T16:22:55.088Z,156.00
2018-02-05T16:23:55.111Z,144.00
2018-02-05T16:24:55.060Z,132.00
2018-02-05T16:25:55.075Z,128.00
2018-02-05T16:26:55.042Z,116.00
2018-02-05T16:27:55.036Z,108.00
2018-02-05T16:28:55.047Z,96.00
2018-02-05T16:29:55.018Z,88.00
2018-02-05T16:30:55.004Z,84.00
2018-02-05T16:31:54.989Z,76.00
2018-02-05T16:32:54.995Z,68.00
2018-02-05T16:33:54.977Z,64.00
2018-02-05T16:34:54.968Z,56.00
2018-02-05T16:35:54.952Z,52.00
2018-02-05T16:36:54.942Z,44.00
2018-02-05T16:37:54.930Z,40.00
2018-02-05T16:38:54.922Z,36.00
2018-02-05T16:39:54.962Z,32.00
2018-02-05T16:40:54.894Z,28.00
2018-02-05T16:41:54.884Z,24.00
2018-02-05T16:42:54.871Z,20.00
2018-02-05T16:43:54.861Z,20.00
2018-02-05T16:44:54.851Z,16.00
2018-02-05T16:45:54.845Z,12.00
2018-02-05T16:46:54.839Z,12.00
2018-02-05T16:47:54.828Z,12.00
2018-02-05T16:48:54.806Z,12.00
2018-02-05T16:49:54.793Z,8.00
2018-02-05T16:50:54.783Z,4.00
2018-02-05T16:51:54.810Z,8.00
2018-02-05T16:52:54.786Z,4.00
2018-02-05T16:53:54.784Z,4.00
2018-02-05T16:54:54.750Z,4.00
2018-02-05T16:55:54.758Z,4.00
2018-02-05T16:56:54.744Z,4.00
2018-02-05T16:57:54.739Z,0.00
2018-02-05T16:58:54.708Z,0.00
2018-02-05T16:59:54.707Z,0.00
2018-02-05T17:00:54.680Z,0.00
2018-02-05T17:01:54.684Z,0.00
2018-02-05T17:02:54.669Z,0.00
2018-02-05T17:03:54.667Z,0.00
2018-02-05T17:04:54.637Z,0.00
2018-02-05T17:05:54.668Z,0.00
2018-02-05T17:06:54.616Z,0.00
2018-02-05T17:07:54.612Z,0.00
2018-02-05T17:08:54.671Z,0.00
2018-02-05T17:09:54.620Z,0.00
2018-02-05T17:10:54.567Z,0.00
2018-02-05T17:11:54.575Z,0.00
2018-02-05T17:12:54.552Z,0.00
2018-02-05T17:13:54.542Z,0.00
2018-02-05T17:14:54.532Z,0.00
2018-02-05T17:15:54.517Z,0.00
2018-02-05T17:16:54.518Z,0.00
2018-02-05T17:17:54.504Z,0.00
2018-02-05T17:18:54.488Z,0.00
2018-02-05T17:19:54.473Z,0.00
2018-02-05T17:20:54.471Z,0.00
2018-02-05T17:21:54.457Z,0.00
2018-02-05T17:22:54.444Z,0.00
2018-02-05T17:23:54.427Z,0.00
2018-02-05T17:24:54.418Z,0.00
2018-02-05T17:25:54.421Z,0.00
2018-02-05T17:26:54.402Z,0.00
2018-02-05T17:27:54.382Z,0.00
2018-02-05T17:28:54.395Z,0.00
2018-02-05T17:29:54.361Z,0.00
2018-02-05T17:30:54.352Z,0.00
2018-02-05T17:31:54.376Z,0.00
2018-02-05T17:32:54.343Z,0.00
2018-02-05T17:33:54.325Z,0.00
2018-02-05T17:34:54.317Z,0.00
2018-02-05T17:35:54.318Z,0.00
2018-02-05T17:36:57.236Z,0.00
2018-02-05T17:37:54.291Z,0.00
2018-02-05T17:38:54.261Z,0.00
2018-02-05T17:39:54.253Z,0.00
2018-02-05T17:40:54.252Z,0.00
2018-02-05T17:41:54.221Z,0.00
2018-02-05T17:42:54.208Z,0.00
2018-02-05T17:43:54.210Z,0.00
2018-02-05T17:44:54.206Z,0.00
2018-02-05T17:45:54.182Z,0.00
2018-02-05T17:46:54.169Z,0.00
2018-02-05T17:47:54.162Z,0.00